createdAt,value
2023-02-27T00:00:16.615Z,-1.97
2023-02-27T00:02:49.517Z,-1.91
2023-02-27T00:05:17.091Z,-1.93
2023-02-27T00:07:44.446Z,-1.94
2023-02-27T00:10:14.277Z,-1.94
2023-02-27T00:12:41.986Z,-1.95
2023-02-27T00:15:11.129Z,-1.98
2023-02-27T00:17:38.246Z,-1.97
2023-02-27T00:20:07.585Z,-2.05
2023-02-27T00:22:34.456Z,-2.15
2023-02-27T00:25:02.242Z,-2.06
2023-02-27T00:27:30.457Z,-1.97
2023-02-27T00:29:57.218Z,-1.96
2023-02-27T00:32:24.071Z,-2.01
2023-02-27T00:34:51.058Z,-2.01
2023-02-27T00:37:18.170Z,-2.27
2023-02-27T00:39:44.932Z,-2.12
2023-02-27T00:42:11.710Z,-2.11
2023-02-27T00:44:38.743Z,-2.10
2023-02-27T00:47:05.499Z,-2.13
2023-02-27T00:49:32.291Z,-2.20
2023-02-27T00:51:59.199Z,-2.15
2023-02-27T00:54:25.915Z,-2.22
2023-02-27T00:56:52.693Z,-2.23
2023-02-27T00:59:19.642Z,-2.21
2023-02-27T01:01:46.355Z,-2.18
2023-02-27T01:04:13.258Z,-2.19
2023-02-27T01:06:40.078Z,-2.20
2023-02-27T01:09:06.924Z,-2.25
2023-02-27T01:11:33.828Z,-2.27
2023-02-27T01:14:00.655Z,-2.26
2023-02-27T01:16:27.486Z,-2.23
2023-02-27T01:18:54.623Z,-2.28
2023-02-27T01:21:21.386Z,-2.23
2023-02-27T01:23:48.193Z,-2.23
2023-02-27T01:26:14.914Z,-2.19
2023-02-27T01:28:41.834Z,-2.17
2023-02-27T01:31:09.464Z,-2.22
2023-02-27T01:33:36.208Z,-2.26
2023-02-27T01:36:03.129Z,-2.39
2023-02-27T01:38:29.928Z,-2.15
2023-02-27T01:40:57.510Z,-2.17
2023-02-27T01:43:24.732Z,-2.24
2023-02-27T01:45:51.583Z,-2.27
2023-02-27T01:48:39.726Z,-2.31
2023-02-27T01:51:14.546Z,-2.44
2023-02-27T01:53:45.777Z,-2.44
2023-02-27T01:56:25.329Z,-2.43
2023-02-27T01:58:59.385Z,-2.41
2023-02-27T02:01:27.507Z,-2.41
2023-02-27T02:04:06.867Z,-2.33
2023-02-27T02:06:38.693Z,-2.34
2023-02-27T02:09:06.410Z,-2.45
2023-02-27T02:11:33.153Z,-2.40
2023-02-27T02:14:02.864Z,-2.46
2023-02-27T02:16:51.639Z,-2.34
2023-02-27T02:19:30.400Z,-2.27
2023-02-27T02:22:33.947Z,-2.24
2023-02-27T02:25:12.424Z,-2.35
2023-02-27T02:27:53.145Z,-2.38
2023-02-27T02:30:44.717Z,-2.49
2023-02-27T02:33:32.706Z,-2.54
2023-02-27T02:36:23.823Z,-2.43
2023-02-27T02:38:56.181Z,-2.40
2023-02-27T02:41:48.813Z,-2.40
2023-02-27T02:44:15.519Z,-2.39
2023-02-27T02:47:03.717Z,-2.41
2023-02-27T02:49:46.053Z,-2.41
2023-02-27T02:52:34.614Z,-2.47
2023-02-27T02:55:13.486Z,-2.52
2023-02-27T02:57:48.257Z,-2.52
2023-02-27T03:00:32.989Z,-2.54
2023-02-27T03:03:35.258Z,-2.57
2023-02-27T03:06:11.426Z,-2.65
2023-02-27T03:08:46.377Z,-2.44
2023-02-27T03:11:13.411Z,-2.38
2023-02-27T03:13:45.983Z,-2.31
2023-02-27T03:16:15.340Z,-2.25
2023-02-27T03:18:50.533Z,-2.19
2023-02-27T03:21:25.124Z,-2.27
2023-02-27T03:23:56.435Z,-2.35
2023-02-27T03:26:29.952Z,-2.36
2023-02-27T03:29:04.866Z,-2.53
2023-02-27T03:31:39.742Z,-2.38
2023-02-27T03:34:19.060Z,-2.35
2023-02-27T03:37:05.355Z,-2.33
2023-02-27T03:39:48.549Z,-2.32
2023-02-27T03:42:37.545Z,-2.45
2023-02-27T03:45:10.236Z,-2.46
2023-02-27T03:47:37.020Z,-2.37
2023-02-27T03:50:04.199Z,-2.37
2023-02-27T03:52:31.797Z,-2.40
2023-02-27T03:55:16.260Z,-2.57
2023-02-27T03:57:45.385Z,-2.41
2023-02-27T04:00:16.559Z,-2.41
2023-02-27T04:02:45.526Z,-2.44
2023-02-27T04:05:12.370Z,-2.44
2023-02-27T04:08:06.743Z,-2.41
2023-02-27T04:10:58.039Z,-2.43
2023-02-27T04:14:00.524Z,-2.39
2023-02-27T04:17:01.606Z,-2.40
2023-02-27T04:19:43.246Z,-2.45
2023-02-27T04:22:34.431Z,-2.45
2023-02-27T04:25:13.355Z,-2.45
2023-02-27T04:27:46.047Z,-2.39
2023-02-27T04:30:27.524Z,-2.40
2023-02-27T04:33:12.794Z,-2.45
2023-02-27T04:35:50.708Z,-2.47
2023-02-27T04:38:29.121Z,-2.50
2023-02-27T04:41:12.540Z,-2.48
2023-02-27T04:43:42.138Z,-2.54
2023-02-27T04:46:12.709Z,-2.56
2023-02-27T04:49:16.089Z,-2.61
2023-02-27T04:52:06.763Z,-2.62
2023-02-27T04:54:40.534Z,-2.58
2023-02-27T04:57:13.919Z,-2.68
2023-02-27T04:59:45.413Z,-2.47
2023-02-27T05:02:19.956Z,-2.46
2023-02-27T05:04:49.649Z,-2.46
2023-02-27T05:07:20.958Z,-2.40
2023-02-27T05:09:57.772Z,-2.41
2023-02-27T05:12:35.884Z,-2.38
2023-02-27T05:15:10.399Z,-2.34
2023-02-27T05:17:54.391Z,-2.40
2023-02-27T05:20:25.802Z,-2.33
2023-02-27T05:23:02.381Z,-2.41
2023-02-27T05:25:44.772Z,-2.45
2023-02-27T05:28:21.436Z,-2.45
2023-02-27T05:31:26.750Z,-2.53
2023-02-27T05:34:04.214Z,-2.57
2023-02-27T05:36:52.126Z,-2.56
2023-02-27T05:39:22.037Z,-2.48
2023-02-27T05:41:54.290Z,-2.55
2023-02-27T05:44:25.600Z,-2.64
2023-02-27T05:47:16.754Z,-2.51
2023-02-27T05:49:57.792Z,-2.41
2023-02-27T05:52:26.688Z,-2.37
2023-02-27T05:55:03.392Z,-2.35
2023-02-27T05:57:44.133Z,-2.31
2023-02-27T06:00:15.199Z,-2.28
2023-02-27T06:02:43.848Z,-2.32
2023-02-27T06:05:11.090Z,-2.31
2023-02-27T06:07:38.339Z,-2.33
2023-02-27T06:10:06.527Z,-2.34
2023-02-27T06:12:33.401Z,-2.32
2023-02-27T06:15:00.155Z,-2.30
2023-02-27T06:17:26.944Z,-2.36
2023-02-27T06:19:53.671Z,-2.39
2023-02-27T06:22:20.482Z,-2.40
2023-02-27T06:24:47.304Z,-2.36
2023-02-27T06:27:14.091Z,-2.45
2023-02-27T06:29:40.875Z,-2.27
2023-02-27T06:32:07.630Z,-2.20
2023-02-27T06:34:34.473Z,-2.16
2023-02-27T06:37:04.267Z,-2.33
2023-02-27T06:39:31.191Z,-2.32
2023-02-27T06:41:57.969Z,-2.30
2023-02-27T06:44:24.868Z,-2.23
2023-02-27T06:46:51.632Z,-2.17
2023-02-27T06:49:19.162Z,-2.21
2023-02-27T06:51:46.083Z,-2.21
2023-02-27T06:54:13.300Z,-2.19
2023-02-27T06:56:40.135Z,-2.13
2023-02-27T06:59:07.714Z,-2.10
2023-02-27T07:01:34.543Z,-2.15
2023-02-27T07:04:01.378Z,-2.08
2023-02-27T07:06:31.947Z,-1.97
2023-02-27T07:09:15.077Z,-1.94
2023-02-27T07:11:41.811Z,-1.92
2023-02-27T07:14:08.584Z,-1.97
2023-02-27T07:16:35.476Z,-1.94
2023-02-27T07:19:02.218Z,-1.87
2023-02-27T07:21:28.935Z,-1.88
2023-02-27T07:23:55.644Z,-1.96
2023-02-27T07:26:22.451Z,-1.99
2023-02-27T07:28:49.168Z,-1.99
2023-02-27T07:31:15.974Z,-2.03
2023-02-27T07:33:42.764Z,-2.00
2023-02-27T07:36:09.743Z,-1.99
2023-02-27T07:38:36.454Z,-1.99
2023-02-27T07:41:03.188Z,-2.03
2023-02-27T07:43:30.309Z,-2.01
2023-02-27T07:45:57.048Z,-1.98
2023-02-27T07:48:24.268Z,-2.04
2023-02-27T07:50:51.035Z,-2.04
2023-02-27T07:53:17.772Z,-1.96
2023-02-27T07:55:44.548Z,-1.93
2023-02-27T07:58:11.281Z,-1.98
2023-02-27T08:00:38.418Z,-1.93
2023-02-27T08:03:05.902Z,-1.91
2023-02-27T08:05:32.797Z,-1.94
2023-02-27T08:07:59.561Z,-1.92
2023-02-27T08:10:26.746Z,-1.88
2023-02-27T08:12:54.021Z,-1.81
2023-02-27T08:15:21.047Z,-1.72
2023-02-27T08:17:48.493Z,-1.70
2023-02-27T08:20:16.493Z,-1.68
2023-02-27T08:22:43.571Z,-1.64
2023-02-27T08:25:11.417Z,-1.69
2023-02-27T08:27:38.844Z,-1.88
2023-02-27T08:30:07.445Z,-1.87
2023-02-27T08:32:34.635Z,-1.77
2023-02-27T08:35:02.313Z,-1.80
2023-02-27T08:37:30.621Z,-1.83
2023-02-27T08:39:57.493Z,-1.73
2023-02-27T08:42:26.564Z,-1.64
2023-02-27T08:44:53.699Z,-1.63
2023-02-27T08:47:20.498Z,-1.66
2023-02-27T08:49:47.268Z,-1.70
2023-02-27T08:52:14.034Z,-1.79
2023-02-27T08:54:40.827Z,-1.79
2023-02-27T08:57:07.623Z,-1.78
2023-02-27T08:59:34.539Z,-1.77
2023-02-27T09:02:01.291Z,-1.65
2023-02-27T09:04:28.139Z,-1.62
2023-02-27T09:06:54.907Z,-1.67
2023-02-27T09:09:23.815Z,-1.67
2023-02-27T09:11:51.446Z,-1.62
2023-02-27T09:14:18.879Z,-1.62
2023-02-27T09:16:46.106Z,-1.58
2023-02-27T09:19:14.564Z,-1.58
2023-02-27T09:21:42.685Z,-1.64
2023-02-27T09:24:19.351Z,-1.65
2023-02-27T09:26:48.076Z,-1.68
2023-02-27T09:29:15.316Z,-1.68
2023-02-27T09:31:42.313Z,-1.66
2023-02-27T09:34:09.136Z,-1.60
2023-02-27T09:36:35.924Z,-1.52
2023-02-27T09:39:02.742Z,-1.52
2023-02-27T09:42:03.190Z,-1.40
2023-02-27T09:44:47.707Z,-1.53
2023-02-27T09:47:24.732Z,-1.55
2023-02-27T09:49:58.157Z,-1.31
2023-02-27T09:52:25.894Z,-1.27
2023-02-27T09:54:54.481Z,-1.23
2023-02-27T09:57:32.599Z,-1.16
2023-02-27T10:00:07.431Z,-1.07
2023-02-27T10:03:17.344Z,-0.98
2023-02-27T10:05:57.227Z,-1.01
2023-02-27T10:08:29.598Z,-1.02
2023-02-27T10:11:11.250Z,-0.96
2023-02-27T10:13:57.816Z,-0.99
2023-02-27T10:16:26.420Z,-1.02
2023-02-27T10:19:03.464Z,-1.07
2023-02-27T10:21:51.296Z,-1.08
2023-02-27T10:24:31.716Z,-0.99
2023-02-27T10:27:02.731Z,-0.92
2023-02-27T10:29:36.593Z,-0.88
2023-02-27T10:32:18.944Z,-0.97
2023-02-27T10:34:58.905Z,-0.75
2023-02-27T10:37:27.262Z,-0.67
2023-02-27T10:39:58.839Z,-0.72
2023-02-27T10:42:31.511Z,-0.65
2023-02-27T10:44:58.465Z,-0.81
2023-02-27T10:47:26.453Z,-0.92
2023-02-27T10:49:54.894Z,-1.01
2023-02-27T10:52:21.931Z,-1.07
2023-02-27T10:54:48.898Z,-1.09
2023-02-27T10:57:21.622Z,-1.10
2023-02-27T10:59:55.942Z,-1.19
2023-02-27T11:02:28.430Z,-1.08
2023-02-27T11:04:58.761Z,-1.10
2023-02-27T11:07:34.939Z,-1.07
2023-02-27T11:10:13.665Z,-1.01
2023-02-27T11:12:42.802Z,-1.00
2023-02-27T11:15:15.564Z,-0.99
2023-02-27T11:17:43.345Z,-1.01
2023-02-27T11:20:35.562Z,-1.05
2023-02-27T11:23:25.593Z,-1.05
2023-02-27T11:26:11.169Z,-1.06
2023-02-27T11:28:37.991Z,-1.11
2023-02-27T11:31:15.168Z,-0.96
2023-02-27T11:33:50.723Z,-1.02
2023-02-27T11:36:17.998Z,-1.12
2023-02-27T11:38:53.302Z,-1.15
2023-02-27T11:41:30.132Z,-1.27
2023-02-27T11:43:59.265Z,-1.36
2023-02-27T11:46:48.364Z,-1.41
2023-02-27T11:49:34.383Z,-1.39
2023-02-27T11:52:17.190Z,-1.44
2023-02-27T11:55:05.832Z,-1.47
2023-02-27T11:57:41.229Z,-1.53
2023-02-27T12:00:19.859Z,-1.66
2023-02-27T12:03:04.586Z,-1.66
2023-02-27T12:05:49.364Z,-1.70
2023-02-27T12:08:28.408Z,-1.67
2023-02-27T12:11:13.066Z,-1.74
2023-02-27T12:13:49.791Z,-1.68
2023-02-27T12:16:26.150Z,-1.67
2023-02-27T12:19:08.784Z,-1.68
2023-02-27T12:21:44.054Z,-1.63
2023-02-27T12:24:10.903Z,-1.66
2023-02-27T12:26:39.983Z,-1.71
2023-02-27T12:29:24.747Z,-1.70
2023-02-27T12:32:03.371Z,-1.71
2023-02-27T12:34:46.646Z,-1.81
2023-02-27T12:37:23.703Z,-1.92
2023-02-27T12:39:52.854Z,-1.95
2023-02-27T12:42:40.589Z,-1.99
2023-02-27T12:45:29.359Z,-1.95
2023-02-27T12:48:09.529Z,-1.81
2023-02-27T12:50:52.009Z,-1.77
2023-02-27T12:53:52.941Z,-1.74
2023-02-27T12:56:23.950Z,-1.79
2023-02-27T12:59:03.804Z,-1.77
2023-02-27T13:01:45.688Z,-1.82
2023-02-27T13:04:34.142Z,-1.88
2023-02-27T13:07:48.516Z,-1.86
2023-02-27T13:10:34.957Z,-1.81
2023-02-27T13:13:11.155Z,-1.80
2023-02-27T13:15:48.704Z,-1.91
2023-02-27T13:18:50.787Z,-1.75
2023-02-27T13:21:20.086Z,-1.79
2023-02-27T13:23:48.579Z,-1.78
2023-02-27T13:26:33.000Z,-1.91
2023-02-27T13:29:01.043Z,-1.73
2023-02-27T13:31:46.400Z,-1.71
2023-02-27T13:34:40.251Z,-1.80
2023-02-27T13:37:09.464Z,-1.91
2023-02-27T13:40:05.040Z,-1.96
2023-02-27T13:42:33.171Z,-1.94
2023-02-27T13:45:01.548Z,-1.92
2023-02-27T13:47:30.547Z,-1.95
2023-02-27T13:50:01.965Z,-1.96
2023-02-27T13:52:38.652Z,-2.04
2023-02-27T13:55:37.800Z,-2.16
2023-02-27T13:58:05.815Z,-2.35
2023-02-27T14:00:37.899Z,-2.41
2023-02-27T14:03:30.153Z,-2.36
2023-02-27T14:06:01.096Z,-2.33
2023-02-27T14:08:30.833Z,-2.26
2023-02-27T14:11:12.551Z,-2.32
2023-02-27T14:13:52.278Z,-2.32
2023-02-27T14:16:37.537Z,-2.33
2023-02-27T14:19:24.299Z,-2.33
2023-02-27T14:22:10.779Z,-2.40
2023-02-27T14:25:01.737Z,-2.41
2023-02-27T14:27:44.667Z,-2.47
2023-02-27T14:30:53.152Z,-2.47
2023-02-27T14:33:54.120Z,-2.38
2023-02-27T14:36:23.557Z,-2.48
2023-02-27T14:38:53.212Z,-2.50
2023-02-27T14:41:29.470Z,-2.56
2023-02-27T14:43:58.066Z,-2.62
2023-02-27T14:46:38.631Z,-2.62
2023-02-27T14:49:22.093Z,-2.58
2023-02-27T14:51:49.245Z,-2.58
2023-02-27T14:54:21.950Z,-2.57
2023-02-27T14:56:59.306Z,-2.53
2023-02-27T14:59:29.402Z,-2.54
2023-02-27T15:01:58.513Z,-2.55
2023-02-27T15:04:29.956Z,-2.54
2023-02-27T15:06:58.609Z,-2.62
2023-02-27T15:09:31.493Z,-2.66
2023-02-27T15:12:03.877Z,-2.63
2023-02-27T15:14:36.110Z,-2.62
2023-02-27T15:17:04.156Z,-2.63
2023-02-27T15:19:31.332Z,-2.59
2023-02-27T15:22:04.004Z,-2.65
2023-02-27T15:24:47.862Z,-2.78
2023-02-27T15:27:22.840Z,-2.83
2023-02-27T15:30:08.742Z,-2.66
2023-02-27T15:32:43.006Z,-2.69
2023-02-27T15:35:18.870Z,-2.70
2023-02-27T15:37:52.030Z,-2.73
2023-02-27T15:40:25.134Z,-2.86
2023-02-27T15:42:54.747Z,-2.74
2023-02-27T15:45:25.647Z,-2.69
2023-02-27T15:47:52.612Z,-2.66
2023-02-27T15:50:31.879Z,-2.67
2023-02-27T15:53:20.025Z,-2.67
2023-02-27T15:55:52.358Z,-2.74
2023-02-27T15:58:24.798Z,-2.79
2023-02-27T16:01:15.052Z,-2.73
2023-02-27T16:03:45.752Z,-2.74
2023-02-27T16:06:18.568Z,-2.69
2023-02-27T16:08:51.251Z,-2.74
2023-02-27T16:11:38.359Z,-2.70
2023-02-27T16:14:06.120Z,-2.70
2023-02-27T16:16:38.828Z,-2.72
2023-02-27T16:19:16.125Z,-2.75
2023-02-27T16:22:23.142Z,-2.78
2023-02-27T16:24:50.693Z,-2.82
2023-02-27T16:27:23.627Z,-2.87
2023-02-27T16:29:51.419Z,-2.81
2023-02-27T16:32:24.487Z,-2.75
2023-02-27T16:34:53.006Z,-2.96
2023-02-27T16:37:29.385Z,-2.72
2023-02-27T16:39:56.142Z,-2.71
2023-02-27T16:42:22.944Z,-2.68
2023-02-27T16:44:49.832Z,-2.74
2023-02-27T16:47:16.634Z,-2.77
2023-02-27T16:49:46.007Z,-2.74
2023-02-27T16:52:12.810Z,-2.74
2023-02-27T16:54:39.641Z,-2.67
2023-02-27T16:57:06.601Z,-2.62
2023-02-27T16:59:42.021Z,-2.71
2023-02-27T17:02:13.673Z,-2.71
2023-02-27T17:04:44.336Z,-2.66
2023-02-27T17:07:15.967Z,-2.65
2023-02-27T17:09:47.210Z,-2.66
2023-02-27T17:12:14.356Z,-2.65
2023-02-27T17:14:41.185Z,-2.78
2023-02-27T17:17:10.907Z,-2.73
2023-02-27T17:19:38.283Z,-2.88
2023-02-27T17:22:05.006Z,-2.85
2023-02-27T17:24:31.842Z,-2.83
2023-02-27T17:26:58.661Z,-3.00
2023-02-27T17:29:25.531Z,-2.85
2023-02-27T17:31:53.030Z,-2.93
2023-02-27T17:34:19.850Z,-3.02
2023-02-27T17:36:48.267Z,-3.11
2023-02-27T17:39:15.969Z,-3.14
2023-02-27T17:41:44.070Z,-3.13
2023-02-27T17:44:12.319Z,-3.11
2023-02-27T17:46:39.987Z,-3.19
2023-02-27T17:49:07.305Z,-3.16
2023-02-27T17:51:34.206Z,-3.18
2023-02-27T17:54:03.020Z,-3.24
2023-02-27T17:56:30.658Z,-3.31
2023-02-27T17:58:58.465Z,-3.33
2023-02-27T18:01:26.333Z,-3.37
2023-02-27T18:03:54.877Z,-3.45
2023-02-27T18:06:22.881Z,-3.44
2023-02-27T18:08:49.714Z,-3.38
2023-02-27T18:11:19.353Z,-3.44
2023-02-27T18:13:47.228Z,-3.52
2023-02-27T18:16:14.621Z,-3.62
2023-02-27T18:18:42.566Z,-3.72
2023-02-27T18:21:12.832Z,-3.74
2023-02-27T18:23:40.846Z,-3.72
2023-02-27T18:26:12.452Z,-3.77
2023-02-27T18:28:44.128Z,-3.65
2023-02-27T18:31:44.965Z,-3.71
2023-02-27T18:34:12.907Z,-3.82
2023-02-27T18:36:39.688Z,-4.01
2023-02-27T18:39:07.542Z,-3.93
2023-02-27T18:41:34.600Z,-3.97
2023-02-27T18:44:01.651Z,-3.92
2023-02-27T18:46:29.363Z,-3.90
2023-02-27T18:48:56.878Z,-4.13
2023-02-27T18:51:24.128Z,-4.17
2023-02-27T18:53:51.979Z,-3.98
2023-02-27T18:56:21.506Z,-4.05
2023-02-27T18:58:48.904Z,-4.11
2023-02-27T19:01:29.463Z,-4.28
2023-02-27T19:04:03.567Z,-4.29
2023-02-27T19:06:36.007Z,-4.26
2023-02-27T19:09:07.068Z,-4.23
2023-02-27T19:11:34.657Z,-4.32
2023-02-27T19:14:03.832Z,-4.30
2023-02-27T19:16:31.476Z,-4.32
2023-02-27T19:19:00.420Z,-4.42
2023-02-27T19:21:27.962Z,-4.32
2023-02-27T19:23:54.782Z,-4.29
2023-02-27T19:26:22.097Z,-4.29
2023-02-27T19:28:56.334Z,-4.27
2023-02-27T19:31:24.574Z,-4.28
2023-02-27T19:33:51.599Z,-4.34
2023-02-27T19:36:21.041Z,-4.38
2023-02-27T19:38:48.691Z,-4.55
2023-02-27T19:41:17.178Z,-4.41
2023-02-27T19:43:44.687Z,-4.41
2023-02-27T19:46:14.494Z,-4.42
2023-02-27T19:48:41.765Z,-4.44
2023-02-27T19:51:11.136Z,-4.44
2023-02-27T19:53:39.772Z,-4.46
2023-02-27T19:56:10.788Z,-4.52
2023-02-27T19:58:39.406Z,-4.56
2023-02-27T20:01:06.688Z,-4.59
2023-02-27T20:03:34.577Z,-4.60
2023-02-27T20:06:05.973Z,-4.64
2023-02-27T20:08:35.790Z,-4.66
2023-02-27T20:11:04.960Z,-4.70
2023-02-27T20:13:31.939Z,-4.70
2023-02-27T20:16:03.754Z,-4.79
2023-02-27T20:18:31.893Z,-5.03
2023-02-27T20:21:00.793Z,-4.93
2023-02-27T20:23:28.116Z,-4.82
2023-02-27T20:25:55.154Z,-4.87
2023-02-27T20:28:22.961Z,-4.83
2023-02-27T20:30:50.027Z,-4.85
2023-02-27T20:33:16.857Z,-4.90
2023-02-27T20:35:43.695Z,-4.96
2023-02-27T20:38:10.499Z,-4.95
2023-02-27T20:40:37.273Z,-4.96
2023-02-27T20:43:04.203Z,-4.98
2023-02-27T20:45:30.974Z,-5.00
2023-02-27T20:47:57.729Z,-5.00
2023-02-27T20:50:24.514Z,-4.99
2023-02-27T20:52:54.569Z,-5.02
2023-02-27T20:55:21.525Z,-5.09
2023-02-27T20:57:48.365Z,-5.12
2023-02-27T21:00:15.984Z,-5.15
2023-02-27T21:02:42.840Z,-5.13
2023-02-27T21:05:09.785Z,-5.19
2023-02-27T21:07:36.560Z,-5.19
2023-02-27T21:10:03.384Z,-5.20
2023-02-27T21:12:30.320Z,-5.22
2023-02-27T21:14:57.117Z,-5.26
2023-02-27T21:17:26.235Z,-5.32
2023-02-27T21:19:53.073Z,-5.22
2023-02-27T21:22:19.811Z,-5.25
2023-02-27T21:24:48.925Z,-5.30
2023-02-27T21:27:19.841Z,-5.29
2023-02-27T21:29:46.783Z,-5.28
2023-02-27T21:32:13.652Z,-5.30
2023-02-27T21:34:40.443Z,-5.32
2023-02-27T21:37:08.997Z,-5.34
2023-02-27T21:39:35.909Z,-5.35
2023-02-27T21:42:02.822Z,-5.55
2023-02-27T21:44:29.869Z,-5.40
2023-02-27T21:46:56.725Z,-5.42
2023-02-27T21:49:26.002Z,-5.44
2023-02-27T21:51:52.937Z,-5.44
2023-02-27T21:54:20.120Z,-5.44
2023-02-27T21:56:48.175Z,-5.41
2023-02-27T21:59:16.560Z,-5.39
2023-02-27T22:01:47.473Z,-5.44
2023-02-27T22:04:16.006Z,-5.47
2023-02-27T22:06:42.899Z,-5.49
2023-02-27T22:09:09.627Z,-5.50
2023-02-27T22:11:36.511Z,-5.52
2023-02-27T22:14:06.008Z,-5.63
2023-02-27T22:16:33.357Z,-5.63
2023-02-27T22:19:04.258Z,-5.68
2023-02-27T22:21:31.613Z,-5.75
2023-02-27T22:23:58.705Z,-5.78
2023-02-27T22:26:28.349Z,-5.77
2023-02-27T22:28:59.142Z,-5.88
2023-02-27T22:31:29.206Z,-5.86
2023-02-27T22:34:03.695Z,-5.78
2023-02-27T22:36:31.830Z,-5.77
2023-02-27T22:38:59.345Z,-5.75
2023-02-27T22:41:32.966Z,-5.75
2023-02-27T22:44:01.276Z,-5.81
2023-02-27T22:46:36.231Z,-5.84
2023-02-27T22:49:15.951Z,-5.88
2023-02-27T22:51:43.084Z,-5.96
2023-02-27T22:54:12.696Z,-5.97
2023-02-27T22:56:39.839Z,-5.98
2023-02-27T22:59:06.897Z,-6.03
2023-02-27T23:01:35.925Z,-6.02
2023-02-27T23:04:04.155Z,-6.03
2023-02-27T23:06:33.779Z,-6.06
2023-02-27T23:09:01.603Z,-6.15
2023-02-27T23:11:28.921Z,-6.11
2023-02-27T23:13:56.091Z,-6.09
2023-02-27T23:16:23.420Z,-6.34
2023-02-27T23:18:54.079Z,-6.17
2023-02-27T23:21:37.630Z,-6.20
2023-02-27T23:24:07.492Z,-6.16
2023-02-27T23:26:43.256Z,-6.23
2023-02-27T23:29:10.427Z,-6.21
2023-02-27T23:31:38.145Z,-6.19
2023-02-27T23:34:06.308Z,-6.26
2023-02-27T23:36:37.813Z,-6.28
2023-02-27T23:39:05.788Z,-6.27
2023-02-27T23:41:33.717Z,-6.29
2023-02-27T23:44:01.702Z,-6.31
2023-02-27T23:46:30.795Z,-6.30
2023-02-27T23:48:58.512Z,-6.32
2023-02-27T23:51:26.048Z,-6.37
2023-02-27T23:53:53.852Z,-6.36
2023-02-27T23:56:26.163Z,-6.36
2023-02-27T23:59:00.102Z,-6.39
